Cropsey, Illinois
Current Conditions -  °F | °C
As of 7:15 PM on Monday 26 Jan 2015 (Local Time) from KPNT Reporting Station
Unknown Precip Unknown Precip  
Wind Chill: 22°   Ceiling: 400
Heat Index: 30°   Visibility: 3mi
Dew Point: 29°   Wind: 8mph
Humidity: 97%   Direction: 170°S
Pressure: 29.9"   Gusts: NA
Location:  40.61°N, 88.48°W
Report Text: KPNT 270115Z AUTO 17007KT 3SM UP OVC004 M01/M01 A2990 RMK AO2 T10111015
Loading
Personal Weather Stations






























Interactive Weather Map New forecast layout! Learn more

10-Day Weather Forecast

Advertisements
Track Severe Weather on mobile